sensor_id;sensor_type;location;lat;lon;timestamp;temperature;humidity
35491;DHT22;21605;52.068;20.806;2024-02-21T00:01:39;5.30;99.90
35491;DHT22;21605;52.068;20.806;2024-02-21T00:04:04;5.30;99.90
35491;DHT22;21605;52.068;20.806;2024-02-21T00:06:31;5.30;99.90
35491;DHT22;21605;52.068;20.806;2024-02-21T00:08:56;5.30;99.90
35491;DHT22;21605;52.068;20.806;2024-02-21T00:11:22;5.30;99.90
35491;DHT22;21605;52.068;20.806;2024-02-21T00:13:48;5.40;99.90
35491;DHT22;21605;52.068;20.806;2024-02-21T00:16:13;5.40;99.90
35491;DHT22;21605;52.068;20.806;2024-02-21T00:18:41;5.50;99.90
35491;DHT22;21605;52.068;20.806;2024-02-21T00:21:06;5.40;99.90
35491;DHT22;21605;52.068;20.806;2024-02-21T00:23:32;5.50;99.90
35491;DHT22;21605;52.068;20.806;2024-02-21T00:25:58;5.50;99.90
35491;DHT22;21605;52.068;20.806;2024-02-21T00:28:23;5.50;99.90
35491;DHT22;21605;52.068;20.806;2024-02-21T00:30:49;5.50;99.90
35491;DHT22;21605;52.068;20.806;2024-02-21T00:33:16;5.50;99.90
35491;DHT22;21605;52.068;20.806;2024-02-21T00:35:42;5.50;99.90
35491;DHT22;21605;52.068;20.806;2024-02-21T00:38:08;5.50;99.90
35491;DHT22;21605;52.068;20.806;2024-02-21T00:40:34;5.60;99.90
35491;DHT22;21605;52.068;20.806;2024-02-21T00:43:00;5.60;99.90
35491;DHT22;21605;52.068;20.806;2024-02-21T00:45:26;5.60;99.90
35491;DHT22;21605;52.068;20.806;2024-02-21T00:47:51;5.60;99.90
35491;DHT22;21605;52.068;20.806;2024-02-21T00:50:17;5.60;99.90
35491;DHT22;21605;52.068;20.806;2024-02-21T00:52:43;5.60;99.90
35491;DHT22;21605;52.068;20.806;2024-02-21T00:55:09;5.60;99.90
35491;DHT22;21605;52.068;20.806;2024-02-21T00:57:35;5.60;99.90
35491;DHT22;21605;52.068;20.806;2024-02-21T01:00:02;5.70;99.90
35491;DHT22;21605;52.068;20.806;2024-02-21T01:02:28;5.60;99.90
35491;DHT22;21605;52.068;20.806;2024-02-21T01:04:57;5.60;99.90
35491;DHT22;21605;52.068;20.806;2024-02-21T01:07:22;5.60;99.90
35491;DHT22;21605;52.068;20.806;2024-02-21T01:09:48;5.60;99.90
35491;DHT22;21605;52.068;20.806;2024-02-21T01:12:14;5.60;99.90
35491;DHT22;21605;52.068;20.806;2024-02-21T01:14:39;5.60;99.90
35491;DHT22;21605;52.068;20.806;2024-02-21T01:17:05;5.60;99.90
35491;DHT22;21605;52.068;20.806;2024-02-21T01:19:31;5.70;99.90
35491;DHT22;21605;52.068;20.806;2024-02-21T01:21:57;5.70;99.90
35491;DHT22;21605;52.068;20.806;2024-02-21T01:24:22;5.70;99.90
35491;DHT22;21605;52.068;20.806;2024-02-21T01:26:49;5.70;99.90
35491;DHT22;21605;52.068;20.806;2024-02-21T01:29:15;5.70;99.90
35491;DHT22;21605;52.068;20.806;2024-02-21T01:31:40;5.80;99.90
35491;DHT22;21605;52.068;20.806;2024-02-21T01:34:06;5.70;99.90
35491;DHT22;21605;52.068;20.806;2024-02-21T01:36:32;5.80;99.90
35491;DHT22;21605;52.068;20.806;2024-02-21T01:38:58;5.80;99.90
35491;DHT22;21605;52.068;20.806;2024-02-21T01:41:23;5.80;99.90
35491;DHT22;21605;52.068;20.806;2024-02-21T01:43:49;5.80;99.90
35491;DHT22;21605;52.068;20.806;2024-02-21T01:46:15;5.80;99.90
35491;DHT22;21605;52.068;20.806;2024-02-21T01:48:41;5.80;99.90
35491;DHT22;21605;52.068;20.806;2024-02-21T01:51:07;5.80;99.90
35491;DHT22;21605;52.068;20.806;2024-02-21T01:53:38;5.80;99.90
35491;DHT22;21605;52.068;20.806;2024-02-21T01:56:07;5.80;99.90
35491;DHT22;21605;52.068;20.806;2024-02-21T01:58:36;5.90;99.90
35491;DHT22;21605;52.068;20.806;2024-02-21T02:01:03;5.80;99.90
35491;DHT22;21605;52.068;20.806;2024-02-21T02:03:28;5.80;99.90
35491;DHT22;21605;52.068;20.806;2024-02-21T02:05:55;5.90;99.90
35491;DHT22;21605;52.068;20.806;2024-02-21T02:08:21;5.80;99.90
35491;DHT22;21605;52.068;20.806;2024-02-21T02:10:50;5.90;99.90
35491;DHT22;21605;52.068;20.806;2024-02-21T02:13:15;5.80;99.90
35491;DHT22;21605;52.068;20.806;2024-02-21T02:15:46;5.80;99.90
35491;DHT22;21605;52.068;20.806;2024-02-21T02:18:13;5.80;99.90
35491;DHT22;21605;52.068;20.806;2024-02-21T02:20:38;5.90;99.90
35491;DHT22;21605;52.068;20.806;2024-02-21T02:25:36;5.90;99.90
35491;DHT22;21605;52.068;20.806;2024-02-21T02:28:06;5.90;99.90
35491;DHT22;21605;52.068;20.806;2024-02-21T02:30:35;5.90;99.90
35491;DHT22;21605;52.068;20.806;2024-02-21T02:33:02;6.00;99.90
35491;DHT22;21605;52.068;20.806;2024-02-21T02:35:28;5.90;99.90
35491;DHT22;21605;52.068;20.806;2024-02-21T02:37:53;5.90;99.90
35491;DHT22;21605;52.068;20.806;2024-02-21T02:40:19;5.90;99.90
35491;DHT22;21605;52.068;20.806;2024-02-21T02:42:45;5.90;99.90
35491;DHT22;21605;52.068;20.806;2024-02-21T02:45:11;5.90;99.90
35491;DHT22;21605;52.068;20.806;2024-02-21T02:47:36;5.80;99.90
35491;DHT22;21605;52.068;20.806;2024-02-21T02:50:02;5.80;99.90
35491;DHT22;21605;52.068;20.806;2024-02-21T02:52:28;5.80;99.90
35491;DHT22;21605;52.068;20.806;2024-02-21T02:54:54;5.80;99.90
35491;DHT22;21605;52.068;20.806;2024-02-21T02:57:21;5.80;99.90
35491;DHT22;21605;52.068;20.806;2024-02-21T02:59:50;5.80;99.90
35491;DHT22;21605;52.068;20.806;2024-02-21T03:02:17;5.90;99.90
35491;DHT22;21605;52.068;20.806;2024-02-21T03:04:43;5.70;99.90
35491;DHT22;21605;52.068;20.806;2024-02-21T03:07:09;5.80;99.90
35491;DHT22;21605;52.068;20.806;2024-02-21T03:09:37;5.80;99.90
35491;DHT22;21605;52.068;20.806;2024-02-21T03:12:03;5.80;99.90
35491;DHT22;21605;52.068;20.806;2024-02-21T03:14:29;5.80;99.90
35491;DHT22;21605;52.068;20.806;2024-02-21T03:16:55;5.80;99.90
35491;DHT22;21605;52.068;20.806;2024-02-21T03:19:21;5.80;99.90
35491;DHT22;21605;52.068;20.806;2024-02-21T03:21:48;5.80;99.90
35491;DHT22;21605;52.068;20.806;2024-02-21T03:24:23;5.80;99.90
35491;DHT22;21605;52.068;20.806;2024-02-21T03:26:49;5.90;99.90
35491;DHT22;21605;52.068;20.806;2024-02-21T03:29:16;5.80;99.90
35491;DHT22;21605;52.068;20.806;2024-02-21T03:31:42;5.80;99.90
35491;DHT22;21605;52.068;20.806;2024-02-21T03:34:10;5.90;99.90
35491;DHT22;21605;52.068;20.806;2024-02-21T03:36:36;5.80;99.90
35491;DHT22;21605;52.068;20.806;2024-02-21T03:39:01;5.70;99.90
35491;DHT22;21605;52.068;20.806;2024-02-21T03:41:27;5.80;99.90
35491;DHT22;21605;52.068;20.806;2024-02-21T03:43:53;5.80;99.90
35491;DHT22;21605;52.068;20.806;2024-02-21T03:46:18;5.80;99.90
35491;DHT22;21605;52.068;20.806;2024-02-21T03:48:44;5.80;99.90
35491;DHT22;21605;52.068;20.806;2024-02-21T03:51:10;5.90;99.90
35491;DHT22;21605;52.068;20.806;2024-02-21T03:53:36;5.80;99.90
35491;DHT22;21605;52.068;20.806;2024-02-21T03:56:02;5.80;99.90
35491;DHT22;21605;52.068;20.806;2024-02-21T03:58:30;5.70;99.90
35491;DHT22;21605;52.068;20.806;2024-02-21T04:00:55;5.70;99.90
35491;DHT22;21605;52.068;20.806;2024-02-21T04:03:21;5.70;99.90
35491;DHT22;21605;52.068;20.806;2024-02-21T04:05:47;5.70;99.90
35491;DHT22;21605;52.068;20.806;2024-02-21T04:08:13;5.70;99.90
35491;DHT22;21605;52.068;20.806;2024-02-21T04:10:38;5.60;99.90
35491;DHT22;21605;52.068;20.806;2024-02-21T04:13:06;5.60;99.90
35491;DHT22;21605;52.068;20.806;2024-02-21T04:15:31;5.60;99.90
35491;DHT22;21605;52.068;20.806;2024-02-21T04:17:57;5.60;99.90
35491;DHT22;21605;52.068;20.806;2024-02-21T04:20:23;5.60;99.90
35491;DHT22;21605;52.068;20.806;2024-02-21T04:22:48;5.60;99.90
35491;DHT22;21605;52.068;20.806;2024-02-21T04:25:15;5.50;99.90
35491;DHT22;21605;52.068;20.806;2024-02-21T04:27:40;5.50;99.90
35491;DHT22;21605;52.068;20.806;2024-02-21T04:30:07;5.60;99.90
35491;DHT22;21605;52.068;20.806;2024-02-21T04:32:33;5.50;99.90
35491;DHT22;21605;52.068;20.806;2024-02-21T04:34:58;5.50;99.90
35491;DHT22;21605;52.068;20.806;2024-02-21T04:37:24;5.50;99.90
35491;DHT22;21605;52.068;20.806;2024-02-21T04:39:50;5.50;99.90
35491;DHT22;21605;52.068;20.806;2024-02-21T04:42:16;5.50;99.90
35491;DHT22;21605;52.068;20.806;2024-02-21T04:44:42;5.50;99.90
35491;DHT22;21605;52.068;20.806;2024-02-21T04:47:08;5.60;99.90
35491;DHT22;21605;52.068;20.806;2024-02-21T04:49:34;5.60;99.90
35491;DHT22;21605;52.068;20.806;2024-02-21T04:52:00;5.50;99.90
35491;DHT22;21605;52.068;20.806;2024-02-21T04:54:26;5.50;99.90
35491;DHT22;21605;52.068;20.806;2024-02-21T04:56:51;5.50;99.90
35491;DHT22;21605;52.068;20.806;2024-02-21T04:59:17;5.60;99.90
35491;DHT22;21605;52.068;20.806;2024-02-21T05:01:43;5.60;99.90
35491;DHT22;21605;52.068;20.806;2024-02-21T05:04:08;5.60;99.90
35491;DHT22;21605;52.068;20.806;2024-02-21T05:06:40;5.60;99.90
35491;DHT22;21605;52.068;20.806;2024-02-21T05:09:07;5.60;99.90
35491;DHT22;21605;52.068;20.806;2024-02-21T05:11:37;5.60;99.90
35491;DHT22;21605;52.068;20.806;2024-02-21T05:14:06;5.60;99.90
35491;DHT22;21605;52.068;20.806;2024-02-21T05:16:32;5.70;99.90
35491;DHT22;21605;52.068;20.806;2024-02-21T05:18:57;5.60;99.90
35491;DHT22;21605;52.068;20.806;2024-02-21T05:21:23;5.50;99.90
35491;DHT22;21605;52.068;20.806;2024-02-21T05:23:50;5.60;99.90
35491;DHT22;21605;52.068;20.806;2024-02-21T05:26:25;5.50;99.90
35491;DHT22;21605;52.068;20.806;2024-02-21T05:28:51;5.60;99.90
35491;DHT22;21605;52.068;20.806;2024-02-21T05:31:20;5.60;99.90
35491;DHT22;21605;52.068;20.806;2024-02-21T05:33:46;5.60;99.90
35491;DHT22;21605;52.068;20.806;2024-02-21T05:36:12;5.70;99.90
35491;DHT22;21605;52.068;20.806;2024-02-21T05:38:38;5.80;99.90
35491;DHT22;21605;52.068;20.806;2024-02-21T05:41:04;5.70;99.90
35491;DHT22;21605;52.068;20.806;2024-02-21T05:43:30;5.70;99.90
35491;DHT22;21605;52.068;20.806;2024-02-21T05:45:56;5.70;99.90
35491;DHT22;21605;52.068;20.806;2024-02-21T05:48:22;5.80;99.90
35491;DHT22;21605;52.068;20.806;2024-02-21T05:50:48;5.90;99.90
35491;DHT22;21605;52.068;20.806;2024-02-21T05:53:14;5.90;99.90
35491;DHT22;21605;52.068;20.806;2024-02-21T05:55:40;5.90;99.90
35491;DHT22;21605;52.068;20.806;2024-02-21T05:58:06;5.80;99.90
35491;DHT22;21605;52.068;20.806;2024-02-21T06:00:32;5.00;99.90
35491;DHT22;21605;52.068;20.806;2024-02-21T06:02:58;5.90;99.90
35491;DHT22;21605;52.068;20.806;2024-02-21T06:05:23;6.10;99.90
35491;DHT22;21605;52.068;20.806;2024-02-21T06:07:49;6.20;99.90
35491;DHT22;21605;52.068;20.806;2024-02-21T06:10:15;6.20;99.90
35491;DHT22;21605;52.068;20.806;2024-02-21T06:12:40;6.20;99.90
35491;DHT22;21605;52.068;20.806;2024-02-21T06:15:07;6.20;99.90
35491;DHT22;21605;52.068;20.806;2024-02-21T06:17:32;6.20;99.90
35491;DHT22;21605;52.068;20.806;2024-02-21T06:19:58;6.30;99.90
35491;DHT22;21605;52.068;20.806;2024-02-21T06:22:23;6.10;99.90
35491;DHT22;21605;52.068;20.806;2024-02-21T06:24:49;6.30;99.90
35491;DHT22;21605;52.068;20.806;2024-02-21T06:27:15;6.20;99.90
35491;DHT22;21605;52.068;20.806;2024-02-21T06:29:41;6.20;99.90
35491;DHT22;21605;52.068;20.806;2024-02-21T06:32:07;6.40;99.90
35491;DHT22;21605;52.068;20.806;2024-02-21T06:34:33;6.30;99.90
35491;DHT22;21605;52.068;20.806;2024-02-21T06:36:58;6.40;99.90
35491;DHT22;21605;52.068;20.806;2024-02-21T06:39:24;6.40;99.90
35491;DHT22;21605;52.068;20.806;2024-02-21T06:41:50;6.50;99.90
35491;DHT22;21605;52.068;20.806;2024-02-21T06:44:19;6.50;99.90
35491;DHT22;21605;52.068;20.806;2024-02-21T06:46:44;6.50;99.90
35491;DHT22;21605;52.068;20.806;2024-02-21T06:49:10;6.50;99.90
35491;DHT22;21605;52.068;20.806;2024-02-21T06:51:45;6.50;99.90
35491;DHT22;21605;52.068;20.806;2024-02-21T06:54:10;6.60;99.90
35491;DHT22;21605;52.068;20.806;2024-02-21T06:56:37;6.50;99.90
35491;DHT22;21605;52.068;20.806;2024-02-21T06:59:03;6.60;99.90
35491;DHT22;21605;52.068;20.806;2024-02-21T07:01:29;6.60;99.90
35491;DHT22;21605;52.068;20.806;2024-02-21T07:03:55;6.80;99.90
35491;DHT22;21605;52.068;20.806;2024-02-21T07:06:20;6.80;99.90
35491;DHT22;21605;52.068;20.806;2024-02-21T07:08:46;6.80;99.90
35491;DHT22;21605;52.068;20.806;2024-02-21T07:11:12;6.80;99.90
35491;DHT22;21605;52.068;20.806;2024-02-21T07:13:37;6.90;99.90
35491;DHT22;21605;52.068;20.806;2024-02-21T07:16:03;6.90;99.90
35491;DHT22;21605;52.068;20.806;2024-02-21T07:18:29;6.90;99.90
35491;DHT22;21605;52.068;20.806;2024-02-21T07:20:54;6.90;99.90
35491;DHT22;21605;52.068;20.806;2024-02-21T07:23:21;6.90;99.90
35491;DHT22;21605;52.068;20.806;2024-02-21T07:25:46;6.90;99.90
35491;DHT22;21605;52.068;20.806;2024-02-21T07:28:12;7.00;99.90
35491;DHT22;21605;52.068;20.806;2024-02-21T07:30:39;7.00;99.90
35491;DHT22;21605;52.068;20.806;2024-02-21T07:33:04;7.00;99.90
35491;DHT22;21605;52.068;20.806;2024-02-21T07:35:30;7.10;99.90
35491;DHT22;21605;52.068;20.806;2024-02-21T07:37:55;7.10;99.90
35491;DHT22;21605;52.068;20.806;2024-02-21T07:40:21;7.10;99.90
35491;DHT22;21605;52.068;20.806;2024-02-21T07:42:47;7.30;99.90
35491;DHT22;21605;52.068;20.806;2024-02-21T07:45:12;7.00;99.90
35491;DHT22;21605;52.068;20.806;2024-02-21T07:47:38;7.20;99.90
35491;DHT22;21605;52.068;20.806;2024-02-21T07:50:04;7.30;99.90
35491;DHT22;21605;52.068;20.806;2024-02-21T07:52:30;7.20;99.90
35491;DHT22;21605;52.068;20.806;2024-02-21T07:54:55;7.20;99.90
35491;DHT22;21605;52.068;20.806;2024-02-21T07:57:21;7.20;99.90
35491;DHT22;21605;52.068;20.806;2024-02-21T07:59:47;7.30;99.90
35491;DHT22;21605;52.068;20.806;2024-02-21T08:02:14;7.40;99.90
35491;DHT22;21605;52.068;20.806;2024-02-21T08:04:40;7.30;99.90
35491;DHT22;21605;52.068;20.806;2024-02-21T08:07:05;7.50;99.90
35491;DHT22;21605;52.068;20.806;2024-02-21T08:09:31;7.60;99.90
35491;DHT22;21605;52.068;20.806;2024-02-21T08:11:57;7.60;99.90
35491;DHT22;21605;52.068;20.806;2024-02-21T08:14:23;7.60;99.90
35491;DHT22;21605;52.068;20.806;2024-02-21T08:16:50;7.60;99.90
35491;DHT22;21605;52.068;20.806;2024-02-21T08:19:18;7.70;99.90
35491;DHT22;21605;52.068;20.806;2024-02-21T08:21:44;7.70;99.90
35491;DHT22;21605;52.068;20.806;2024-02-21T08:24:15;7.70;99.90
35491;DHT22;21605;52.068;20.806;2024-02-21T08:26:44;7.80;99.90
35491;DHT22;21605;52.068;20.806;2024-02-21T08:29:12;7.80;99.90
35491;DHT22;21605;52.068;20.806;2024-02-21T08:31:38;8.00;99.90
35491;DHT22;21605;52.068;20.806;2024-02-21T08:34:04;8.10;99.90
35491;DHT22;21605;52.068;20.806;2024-02-21T08:36:34;8.20;99.90
35491;DHT22;21605;52.068;20.806;2024-02-21T08:39:00;8.30;99.90
35491;DHT22;21605;52.068;20.806;2024-02-21T08:41:26;8.20;99.90
35491;DHT22;21605;52.068;20.806;2024-02-21T08:43:53;8.30;99.90
35491;DHT22;21605;52.068;20.806;2024-02-21T08:46:19;8.40;99.90
35491;DHT22;21605;52.068;20.806;2024-02-21T08:48:46;8.70;99.90
35491;DHT22;21605;52.068;20.806;2024-02-21T08:51:12;8.60;99.90
35491;DHT22;21605;52.068;20.806;2024-02-21T08:53:38;8.70;99.90
35491;DHT22;21605;52.068;20.806;2024-02-21T08:56:04;8.70;99.90
35491;DHT22;21605;52.068;20.806;2024-02-21T08:58:30;8.80;99.90
35491;DHT22;21605;52.068;20.806;2024-02-21T09:00:56;9.00;99.90
35491;DHT22;21605;52.068;20.806;2024-02-21T09:03:22;9.00;99.90
35491;DHT22;21605;52.068;20.806;2024-02-21T09:05:48;8.80;99.90
35491;DHT22;21605;52.068;20.806;2024-02-21T09:08:13;8.90;99.90
35491;DHT22;21605;52.068;20.806;2024-02-21T09:10:42;8.80;99.90
35491;DHT22;21605;52.068;20.806;2024-02-21T09:13:07;8.80;99.90
35491;DHT22;21605;52.068;20.806;2024-02-21T09:15:34;8.90;99.90
35491;DHT22;21605;52.068;20.806;2024-02-21T09:18:00;9.00;99.90
35491;DHT22;21605;52.068;20.806;2024-02-21T09:20:25;9.10;99.90
35491;DHT22;21605;52.068;20.806;2024-02-21T09:22:51;9.00;99.90
35491;DHT22;21605;52.068;20.806;2024-02-21T09:25:18;8.90;99.90
35491;DHT22;21605;52.068;20.806;2024-02-21T09:27:44;9.00;99.90
35491;DHT22;21605;52.068;20.806;2024-02-21T09:30:10;9.10;99.90
35491;DHT22;21605;52.068;20.806;2024-02-21T09:32:37;9.00;99.90
35491;DHT22;21605;52.068;20.806;2024-02-21T09:35:03;9.20;99.90
35491;DHT22;21605;52.068;20.806;2024-02-21T09:37:31;9.10;99.90
35491;DHT22;21605;52.068;20.806;2024-02-21T09:39:56;9.20;99.90
35491;DHT22;21605;52.068;20.806;2024-02-21T09:42:26;9.20;99.90
35491;DHT22;21605;52.068;20.806;2024-02-21T09:44:54;9.20;99.90
35491;DHT22;21605;52.068;20.806;2024-02-21T09:47:24;9.20;99.90
35491;DHT22;21605;52.068;20.806;2024-02-21T09:49:50;9.20;99.90
35491;DHT22;21605;52.068;20.806;2024-02-21T09:52:17;9.40;99.90
35491;DHT22;21605;52.068;20.806;2024-02-21T09:54:44;9.30;99.90
35491;DHT22;21605;52.068;20.806;2024-02-21T09:57:10;9.30;99.90
35491;DHT22;21605;52.068;20.806;2024-02-21T09:59:37;9.40;99.90
35491;DHT22;21605;52.068;20.806;2024-02-21T10:02:03;9.40;99.90
35491;DHT22;21605;52.068;20.806;2024-02-21T10:04:30;9.30;99.90
35491;DHT22;21605;52.068;20.806;2024-02-21T10:06:56;9.50;99.90
35491;DHT22;21605;52.068;20.806;2024-02-21T10:11:49;9.50;99.90
35491;DHT22;21605;52.068;20.806;2024-02-21T10:14:15;9.50;99.90
35491;DHT22;21605;52.068;20.806;2024-02-21T10:16:41;9.40;99.90
35491;DHT22;21605;52.068;20.806;2024-02-21T10:19:18;9.60;99.90
35491;DHT22;21605;52.068;20.806;2024-02-21T10:21:57;9.40;99.90
35491;DHT22;21605;52.068;20.806;2024-02-21T10:24:29;9.40;99.90
35491;DHT22;21605;52.068;20.806;2024-02-21T10:27:02;9.40;99.90
35491;DHT22;21605;52.068;20.806;2024-02-21T10:29:32;9.30;99.90
35491;DHT22;21605;52.068;20.806;2024-02-21T10:32:09;9.30;99.90
35491;DHT22;21605;52.068;20.806;2024-02-21T10:34:35;9.30;99.90
35491;DHT22;21605;52.068;20.806;2024-02-21T10:37:06;9.40;99.90
35491;DHT22;21605;52.068;20.806;2024-02-21T10:39:41;9.40;99.90
35491;DHT22;21605;52.068;20.806;2024-02-21T10:42:08;9.50;99.90
35491;DHT22;21605;52.068;20.806;2024-02-21T10:44:39;9.50;99.90
35491;DHT22;21605;52.068;20.806;2024-02-21T10:47:08;9.50;99.90
35491;DHT22;21605;52.068;20.806;2024-02-21T10:49:39;9.60;99.90
35491;DHT22;21605;52.068;20.806;2024-02-21T10:55:20;9.60;99.90
35491;DHT22;21605;52.068;20.806;2024-02-21T10:57:49;9.50;99.90
35491;DHT22;21605;52.068;20.806;2024-02-21T11:00:17;9.60;99.90
35491;DHT22;21605;52.068;20.806;2024-02-21T11:02:43;9.60;99.90
35491;DHT22;21605;52.068;20.806;2024-02-21T11:05:09;9.90;99.90
35491;DHT22;21605;52.068;20.806;2024-02-21T11:07:37;9.90;99.90
35491;DHT22;21605;52.068;20.806;2024-02-21T11:10:03;9.60;99.90
35491;DHT22;21605;52.068;20.806;2024-02-21T11:12:32;9.60;99.90
35491;DHT22;21605;52.068;20.806;2024-02-21T11:15:07;9.70;99.90
35491;DHT22;21605;52.068;20.806;2024-02-21T11:17:33;9.70;99.90
35491;DHT22;21605;52.068;20.806;2024-02-21T11:19:59;9.80;99.90
35491;DHT22;21605;52.068;20.806;2024-02-21T11:22:44;9.70;99.90
35491;DHT22;21605;52.068;20.806;2024-02-21T11:25:10;9.60;99.90
35491;DHT22;21605;52.068;20.806;2024-02-21T11:27:38;9.60;99.90
35491;DHT22;21605;52.068;20.806;2024-02-21T11:30:05;9.80;99.90
35491;DHT22;21605;52.068;20.806;2024-02-21T11:32:31;9.60;99.90
35491;DHT22;21605;52.068;20.806;2024-02-21T11:34:58;9.60;99.90
35491;DHT22;21605;52.068;20.806;2024-02-21T11:37:27;9.70;99.90
35491;DHT22;21605;52.068;20.806;2024-02-21T11:39:57;9.70;99.90
35491;DHT22;21605;52.068;20.806;2024-02-21T11:42:22;9.70;99.90
35491;DHT22;21605;52.068;20.806;2024-02-21T11:44:50;9.60;99.90
35491;DHT22;21605;52.068;20.806;2024-02-21T11:47:15;9.60;99.90
35491;DHT22;21605;52.068;20.806;2024-02-21T11:49:46;9.50;99.90
35491;DHT22;21605;52.068;20.806;2024-02-21T11:52:14;9.70;99.90
35491;DHT22;21605;52.068;20.806;2024-02-21T11:54:41;9.60;99.90
35491;DHT22;21605;52.068;20.806;2024-02-21T11:57:06;9.40;99.90
35491;DHT22;21605;52.068;20.806;2024-02-21T11:59:33;9.50;99.90
35491;DHT22;21605;52.068;20.806;2024-02-21T12:02:02;9.30;99.90
35491;DHT22;21605;52.068;20.806;2024-02-21T12:04:31;9.30;99.90
35491;DHT22;21605;52.068;20.806;2024-02-21T12:06:57;9.30;99.90
35491;DHT22;21605;52.068;20.806;2024-02-21T12:09:26;9.20;99.90
35491;DHT22;21605;52.068;20.806;2024-02-21T12:12:05;9.30;99.90
35491;DHT22;21605;52.068;20.806;2024-02-21T12:14:32;9.30;99.90
35491;DHT22;21605;52.068;20.806;2024-02-21T12:16:59;9.50;99.90
35491;DHT22;21605;52.068;20.806;2024-02-21T12:19:25;9.40;99.90
35491;DHT22;21605;52.068;20.806;2024-02-21T12:21:50;9.30;99.90
35491;DHT22;21605;52.068;20.806;2024-02-21T12:24:24;9.30;99.90
35491;DHT22;21605;52.068;20.806;2024-02-21T12:26:51;9.30;99.90
35491;DHT22;21605;52.068;20.806;2024-02-21T12:29:20;9.40;99.90
35491;DHT22;21605;52.068;20.806;2024-02-21T12:31:46;9.30;99.90
35491;DHT22;21605;52.068;20.806;2024-02-21T12:34:13;9.30;99.90
35491;DHT22;21605;52.068;20.806;2024-02-21T12:36:45;9.20;99.90
35491;DHT22;21605;52.068;20.806;2024-02-21T12:39:14;9.20;99.90
35491;DHT22;21605;52.068;20.806;2024-02-21T12:41:40;9.20;99.90
35491;DHT22;21605;52.068;20.806;2024-02-21T12:44:10;9.20;99.90
35491;DHT22;21605;52.068;20.806;2024-02-21T12:46:37;9.30;99.90
35491;DHT22;21605;52.068;20.806;2024-02-21T12:49:03;9.30;99.90
35491;DHT22;21605;52.068;20.806;2024-02-21T12:51:32;8.90;99.90
35491;DHT22;21605;52.068;20.806;2024-02-21T12:53:58;8.90;99.90
35491;DHT22;21605;52.068;20.806;2024-02-21T12:56:24;8.90;99.90
35491;DHT22;21605;52.068;20.806;2024-02-21T12:58:51;9.00;99.90
35491;DHT22;21605;52.068;20.806;2024-02-21T13:01:17;9.00;99.90
35491;DHT22;21605;52.068;20.806;2024-02-21T13:03:42;9.00;99.90
35491;DHT22;21605;52.068;20.806;2024-02-21T13:06:08;9.20;99.90
35491;DHT22;21605;52.068;20.806;2024-02-21T13:08:36;9.20;99.90
35491;DHT22;21605;52.068;20.806;2024-02-21T13:11:02;9.10;99.90
35491;DHT22;21605;52.068;20.806;2024-02-21T13:13:27;9.10;99.90
35491;DHT22;21605;52.068;20.806;2024-02-21T13:15:53;9.30;99.90
35491;DHT22;21605;52.068;20.806;2024-02-21T13:18:19;9.20;99.90
35491;DHT22;21605;52.068;20.806;2024-02-21T13:20:44;9.10;99.90
35491;DHT22;21605;52.068;20.806;2024-02-21T13:23:10;9.00;99.90
35491;DHT22;21605;52.068;20.806;2024-02-21T13:25:35;9.10;99.90
35491;DHT22;21605;52.068;20.806;2024-02-21T13:28:01;9.00;99.90
35491;DHT22;21605;52.068;20.806;2024-02-21T13:30:28;9.00;99.90
35491;DHT22;21605;52.068;20.806;2024-02-21T13:32:54;8.90;99.90
35491;DHT22;21605;52.068;20.806;2024-02-21T13:35:20;9.00;99.90
35491;DHT22;21605;52.068;20.806;2024-02-21T13:37:46;9.10;99.90
35491;DHT22;21605;52.068;20.806;2024-02-21T13:40:12;9.00;99.90
35491;DHT22;21605;52.068;20.806;2024-02-21T13:42:39;9.10;99.90
35491;DHT22;21605;52.068;20.806;2024-02-21T13:45:06;9.00;99.90
35491;DHT22;21605;52.068;20.806;2024-02-21T13:47:35;9.00;99.90
35491;DHT22;21605;52.068;20.806;2024-02-21T13:50:05;9.00;99.90
35491;DHT22;21605;52.068;20.806;2024-02-21T13:52:34;9.10;99.90
35491;DHT22;21605;52.068;20.806;2024-02-21T13:55:00;9.20;99.90
35491;DHT22;21605;52.068;20.806;2024-02-21T13:57:25;9.00;99.90
35491;DHT22;21605;52.068;20.806;2024-02-21T13:59:51;9.00;99.90
35491;DHT22;21605;52.068;20.806;2024-02-21T14:02:16;8.90;99.90
35491;DHT22;21605;52.068;20.806;2024-02-21T14:04:42;8.90;99.90
35491;DHT22;21605;52.068;20.806;2024-02-21T14:07:08;8.90;99.90
35491;DHT22;21605;52.068;20.806;2024-02-21T14:09:34;8.90;99.90
35491;DHT22;21605;52.068;20.806;2024-02-21T14:11:59;8.90;99.90
35491;DHT22;21605;52.068;20.806;2024-02-21T14:14:25;8.90;99.90
35491;DHT22;21605;52.068;20.806;2024-02-21T14:16:51;9.30;99.90
35491;DHT22;21605;52.068;20.806;2024-02-21T14:19:16;9.10;99.90
35491;DHT22;21605;52.068;20.806;2024-02-21T14:21:44;9.00;99.90
35491;DHT22;21605;52.068;20.806;2024-02-21T14:24:11;9.00;99.90
35491;DHT22;21605;52.068;20.806;2024-02-21T14:26:37;8.80;99.90
35491;DHT22;21605;52.068;20.806;2024-02-21T14:29:03;8.80;99.90
35491;DHT22;21605;52.068;20.806;2024-02-21T14:31:32;8.70;99.90
35491;DHT22;21605;52.068;20.806;2024-02-21T14:33:58;8.10;99.90
35491;DHT22;21605;52.068;20.806;2024-02-21T14:36:23;8.80;99.90
35491;DHT22;21605;52.068;20.806;2024-02-21T14:38:51;8.80;99.90
35491;DHT22;21605;52.068;20.806;2024-02-21T14:41:18;8.70;99.90
35491;DHT22;21605;52.068;20.806;2024-02-21T14:43:44;8.70;99.90
35491;DHT22;21605;52.068;20.806;2024-02-21T14:46:09;8.70;99.90
35491;DHT22;21605;52.068;20.806;2024-02-21T14:48:35;8.80;99.90
35491;DHT22;21605;52.068;20.806;2024-02-21T14:51:01;8.90;99.90
35491;DHT22;21605;52.068;20.806;2024-02-21T14:53:27;8.70;99.90
35491;DHT22;21605;52.068;20.806;2024-02-21T14:55:54;8.70;99.90
35491;DHT22;21605;52.068;20.806;2024-02-21T14:58:20;8.80;99.90
35491;DHT22;21605;52.068;20.806;2024-02-21T15:00:46;8.80;99.90
35491;DHT22;21605;52.068;20.806;2024-02-21T15:03:16;8.70;99.90
35491;DHT22;21605;52.068;20.806;2024-02-21T15:05:46;8.70;99.90
35491;DHT22;21605;52.068;20.806;2024-02-21T15:08:11;8.70;99.90
35491;DHT22;21605;52.068;20.806;2024-02-21T15:10:38;8.70;99.90
35491;DHT22;21605;52.068;20.806;2024-02-21T15:13:04;8.80;99.90
35491;DHT22;21605;52.068;20.806;2024-02-21T15:15:30;8.80;99.90
35491;DHT22;21605;52.068;20.806;2024-02-21T15:17:56;8.80;99.90
35491;DHT22;21605;52.068;20.806;2024-02-21T15:20:21;8.80;99.90
35491;DHT22;21605;52.068;20.806;2024-02-21T15:22:47;8.70;99.90
35491;DHT22;21605;52.068;20.806;2024-02-21T15:25:14;8.60;99.90
35491;DHT22;21605;52.068;20.806;2024-02-21T15:27:44;8.70;99.90
35491;DHT22;21605;52.068;20.806;2024-02-21T15:30:11;8.60;99.90
35491;DHT22;21605;52.068;20.806;2024-02-21T15:32:37;8.60;99.90
35491;DHT22;21605;52.068;20.806;2024-02-21T15:35:04;8.70;99.90